Time;durP1;ratioP1;P1;durP2;ratioP2;P2;SDS_P1;SDS_P2;PMS_P1;PMS_P2;Temp;Humidity;BMP_temperature;BMP_pressure;BME280_temperature;BME280_humidity;BME280_pressure;Samples;Min_cycle;Max_cycle;Signal;HPM_P1;HPM_P2
2022/12/29 00:01:47;;;;;;;11.53;6.10;;;;;;;10.18;64.35;100173.41;6040105;23;20224;-89
2022/12/29 00:04:15;;;;;;;15.63;7.83;;;;;;;10.20;64.13;100187.31;6039948;23;20214;-90
2022/12/29 00:06:41;;;;;;;16.40;7.10;;;;;;;10.16;64.42;100180.47;6040421;23;20158;-90
2022/12/29 00:09:07;;;;;;;10.70;5.77;;;;;;;10.06;65.17;100179.06;6039529;23;20243;-90
2022/12/29 00:11:32;;;;;;;14.13;6.73;;;;;;;10.08;65.15;100185.09;6014537;23;20596;-89
2022/12/29 00:16:45;;;;;;;12.57;6.33;;;;;;;10.15;64.82;100184.00;6040316;23;20149;-89
2022/12/29 00:36:13;;;;;;;18.10;6.40;;;;;;;10.05;65.46;100189.56;6040244;23;20149;-89
2022/12/29 00:44:13;;;;;;;13.73;6.70;;;;;;;10.06;65.46;100186.91;6039809;23;20567;-89
2022/12/29 00:46:42;;;;;;;12.20;6.53;;;;;;;10.14;65.37;100191.94;6015759;23;20645;-89
2022/12/29 00:51:58;;;;;;;10.77;5.77;;;;;;;10.19;65.37;100190.00;6040181;23;20169;-89
2022/12/29 00:54:24;;;;;;;12.23;5.37;;;;;;;10.19;65.33;100184.75;6040135;23;20496;-89
2022/12/29 00:56:51;;;;;;;14.90;5.47;;;;;;;10.14;65.74;100184.06;6014710;23;20186;-90
2022/12/29 00:59:19;;;;;;;11.33;4.87;;;;;;;10.18;65.95;100186.53;6038290;23;20233;-90
2022/12/29 01:01:47;;;;;;;13.03;5.77;;;;;;;10.20;66.15;100184.69;6039602;23;20216;-90
2022/12/29 01:04:12;;;;;;;19.37;5.20;;;;;;;10.24;65.50;100186.31;6038239;23;20609;-90
2022/12/29 01:06:40;;;;;;;12.53;5.03;;;;;;;10.18;66.11;100183.91;6039414;23;20150;-90
2022/12/29 01:11:54;;;;;;;9.90;4.90;;;;;;;10.17;66.03;100182.19;6018841;23;20253;-89
2022/12/29 01:14:20;;;;;;;10.93;5.57;;;;;;;10.16;66.08;100185.72;6039385;23;20192;-90
2022/12/29 01:16:47;;;;;;;14.70;6.10;;;;;;;10.21;65.86;100185.56;6039626;23;20154;-90
2022/12/29 01:19:15;;;;;;;13.50;6.40;;;;;;;10.24;66.02;100191.56;6014434;23;20153;-90
2022/12/29 01:21:40;;;;;;;15.53;6.20;;;;;;;10.24;66.08;100175.84;6014223;23;20233;-90
2022/12/29 01:24:06;;;;;;;16.90;7.13;;;;;;;10.24;66.06;100175.84;6039442;23;20156;-89
2022/12/29 01:26:32;;;;;;;20.43;6.97;;;;;;;10.26;66.04;100171.41;6014822;23;20157;-90
2022/12/29 01:28:59;;;;;;;15.37;7.00;;;;;;;10.28;65.87;100185.28;6039344;23;20153;-89
2022/12/29 01:31:25;;;;;;;13.67;6.97;;;;;;;10.30;65.76;100179.97;6039663;23;20161;-89
2022/12/29 01:33:52;;;;;;;12.60;5.70;;;;;;;10.29;65.74;100176.53;6014116;23;20209;-90
2022/12/29 01:36:18;;;;;;;21.63;7.20;;;;;;;10.29;65.91;100171.28;6039951;23;20150;-90
2022/12/29 01:38:44;;;;;;;15.53;6.37;;;;;;;10.27;66.08;100175.69;6014449;23;20158;-89
2022/12/29 01:41:13;;;;;;;11.37;6.17;;;;;;;10.27;66.25;100172.25;6039572;23;20176;-90
2022/12/29 01:43:46;;;;;;;13.27;5.83;;;;;;;10.25;66.24;100167.06;6014448;23;20158;-89
2022/12/29 01:46:41;;;;;;;13.20;6.30;;;;;;;10.19;66.45;100163.81;6039224;23;20618;-90
2022/12/29 01:49:24;;;;;;;18.47;6.77;;;;;;;10.20;66.64;100170.72;6039944;23;20221;-90
2022/12/29 01:51:58;;;;;;;15.93;7.73;;;;;;;10.19;66.61;100169.03;6039358;23;20142;-90
2022/12/29 01:54:45;;;;;;;18.47;7.23;;;;;;;10.25;66.27;100169.66;6039480;23;20606;-89
2022/12/29 01:57:19;;;;;;;10.07;5.90;;;;;;;10.31;66.51;100172.09;6014312;23;20482;-90
2022/12/29 01:59:54;;;;;;;15.13;6.53;;;;;;;10.36;66.19;100166.69;6039530;23;20193;-91
2022/12/29 02:02:21;;;;;;;12.37;5.70;;;;;;;10.39;65.61;100167.44;6039532;23;20149;-91
2022/12/29 02:04:47;;;;;;;11.20;5.77;;;;;;;10.39;65.59;100164.81;6039193;23;20146;-90
2022/12/29 02:07:22;;;;;;;9.60;4.83;;;;;;;10.33;65.76;100170.25;6038904;23;20459;-90
2022/12/29 02:09:51;;;;;;;12.00;5.23;;;;;;;10.36;65.59;100167.53;6039339;23;20208;-90
2022/12/29 02:12:19;;;;;;;18.07;5.07;;;;;;;10.37;65.75;100169.25;6039071;23;20172;-91
2022/12/29 02:14:45;;;;;;;8.30;4.63;;;;;;;10.39;65.40;100163.94;6039105;23;20308;-90
2022/12/29 02:17:16;;;;;;;9.83;4.63;;;;;;;10.37;65.53;100171.03;6039208;23;20193;-89
2022/12/29 02:20:00;;;;;;;15.63;5.00;;;;;;;10.40;65.66;100165.69;6039103;23;20154;-90
2022/12/29 02:22:53;;;;;;;12.87;5.33;;;;;;;10.33;65.61;100167.63;6015205;23;20150;-90
2022/12/29 02:25:59;;;;;;;13.37;5.37;;;;;;;10.22;66.10;100167.16;6014425;23;20571;-90
2022/12/29 02:28:55;;;;;;;9.23;4.80;;;;;;;10.21;66.17;100170.69;6037863;23;20158;-89
2022/12/29 02:31:58;;;;;;;12.20;4.57;;;;;;;10.24;66.33;100165.34;6014686;23;20203;-89
2022/12/29 02:34:33;;;;;;;11.40;4.77;;;;;;;10.24;66.40;100156.63;6016752;23;20181;-89
2022/12/29 02:37:49;;;;;;;13.53;4.80;;;;;;;10.24;66.30;100161.88;6041911;23;20169;-89
2022/12/29 02:40:55;;;;;;;12.93;5.27;;;;;;;10.18;66.21;100159.47;6008550;23;20244;-89
2022/12/29 02:44:02;;;;;;;13.90;4.73;;;;;;;10.11;66.50;100150.06;6016935;23;20153;-89
2022/12/29 02:46:28;;;;;;;17.20;5.07;;;;;;;10.16;66.73;100148.19;5964704;23;20169;-89
2022/12/29 02:49:10;;;;;;;13.67;5.67;;;;;;;10.14;66.83;100144.78;6015637;23;20567;-90
2022/12/29 02:51:44;;;;;;;11.47;4.60;;;;;;;10.19;66.37;100148.94;6015812;23;20241;-89
2022/12/29 02:56:54;;;;;;;11.90;5.60;;;;;;;10.28;66.04;100145.13;6041075;23;20149;-89
2022/12/29 02:59:22;;;;;;;12.30;4.90;;;;;;;10.25;65.68;100138.22;6016115;23;20177;-89
2022/12/29 03:02:16;;;;;;;15.40;6.70;;;;;;;10.21;65.55;100136.63;6041340;23;20646;-89
2022/12/29 03:05:15;;;;;;;16.63;5.00;;;;;;;9.78;66.95;100133.72;6040600;23;20252;-89
2022/12/29 03:07:40;;;;;;;14.27;5.50;;;;;;;9.80;67.27;100132.78;6040572;23;20559;-89
2022/12/29 03:10:34;;;;;;;12.30;4.87;;;;;;;9.46;68.46;100133.94;6040417;23;20216;-90
2022/12/29 03:16:03;;;;;;;16.17;5.33;;;;;;;9.71;67.77;100135.72;6040939;23;20152;-89
2022/12/29 03:18:56;;;;;;;13.87;4.43;;;;;;;9.72;67.89;100141.81;6040443;23;20142;-89
2022/12/29 03:24:25;;;;;;;13.07;4.50;;;;;;;9.75;67.90;100137.31;6040423;23;20223;-90
2022/12/29 03:26:54;;;;;;;13.43;5.03;;;;;;;9.79;67.96;100132.84;6040771;23;20237;-89
2022/12/29 03:29:21;;;;;;;7.80;4.10;;;;;;;9.85;67.55;100137.88;6040388;23;20160;-89
2022/12/29 03:31:50;;;;;;;9.50;4.10;;;;;;;9.87;67.31;100136.91;6040372;23;20153;-89
2022/12/29 03:34:20;;;;;;;11.80;5.00;;;;;;;9.81;67.47;100134.50;6040340;23;20177;-90
2022/12/29 03:36:53;;;;;;;9.00;5.23;;;;;;;9.80;67.70;100131.94;6040339;23;20149;-90
2022/12/29 03:39:23;;;;;;;10.87;3.87;;;;;;;9.77;67.73;100132.88;6040416;23;20652;-90
2022/12/29 03:42:00;;;;;;;15.30;5.20;;;;;;;9.70;67.78;100128.75;6039834;23;20142;-90
2022/12/29 03:44:41;;;;;;;20.03;5.77;;;;;;;9.75;67.96;100129.44;6039732;23;20142;-90
2022/12/29 03:47:11;;;;;;;12.40;4.90;;;;;;;9.81;67.56;100126.63;6015382;23;20188;-90
2022/12/29 03:49:38;;;;;;;9.17;4.70;;;;;;;9.78;67.91;100128.50;6040935;23;20565;-89
2022/12/29 03:52:04;;;;;;;10.00;4.83;;;;;;;9.85;67.79;100122.16;6040800;23;20150;-90
2022/12/29 03:54:30;;;;;;;10.47;4.43;;;;;;;9.95;67.02;100122.69;6040169;23;20241;-89
2022/12/29 03:56:57;;;;;;;11.47;5.23;;;;;;;9.98;66.92;100126.06;6015491;23;20164;-89
2022/12/29 03:59:24;;;;;;;11.30;4.80;;;;;;;9.95;67.17;100133.16;6016483;23;20235;-89
2022/12/29 04:01:50;;;;;;;9.40;4.77;;;;;;;9.97;67.19;100131.34;6040249;23;20546;-89
2022/12/29 04:04:16;;;;;;;15.50;5.77;;;;;;;10.02;66.76;100135.53;6040494;23;20610;-90
2022/12/29 04:06:41;;;;;;;11.83;4.73;;;;;;;10.04;66.84;100128.47;6039822;23;20154;-89
2022/12/29 04:09:07;;;;;;;18.93;5.50;;;;;;;10.16;66.58;100128.09;6015471;23;20469;-90
2022/12/29 04:11:33;;;;;;;16.63;6.23;;;;;;;10.16;66.12;100132.47;6015182;23;20205;-90
2022/12/29 04:13:58;;;;;;;20.20;5.63;;;;;;;10.09;66.62;100137.00;6015344;23;20188;-89
2022/12/29 04:16:25;;;;;;;12.07;5.40;;;;;;;10.07;66.60;100132.75;6039838;23;20480;-90
2022/12/29 04:18:50;;;;;;;13.33;5.13;;;;;;;10.08;66.61;100140.56;6015104;23;20172;-90
2022/12/29 04:21:17;;;;;;;13.03;5.53;;;;;;;10.07;66.48;100136.22;6015172;23;20484;-90
2022/12/29 04:23:43;;;;;;;25.27;4.37;;;;;;;10.14;66.75;100129.06;6039893;23;20680;-90
2022/12/29 04:26:09;;;;;;;10.27;5.17;;;;;;;10.21;66.15;100134.03;6038832;23;20261;-90
2022/12/29 04:28:36;;;;;;;10.20;5.17;;;;;;;10.12;66.04;100134.31;6039802;23;20213;-90
2022/12/29 04:31:04;;;;;;;8.20;3.57;;;;;;;10.06;66.28;100133.66;6039916;23;20154;-90
2022/12/29 04:33:31;;;;;;;13.03;5.47;;;;;;;10.01;66.53;100131.19;6040132;23;20578;-90
2022/12/29 04:35:57;;;;;;;13.37;6.70;;;;;;;10.02;66.47;100127.66;6040086;23;20549;-90
2022/12/29 04:38:23;;;;;;;11.67;5.67;;;;;;;9.96;66.85;100129.66;6039761;23;20153;-90
2022/12/29 04:40:51;;;;;;;20.80;8.00;;;;;;;9.98;66.54;100133.06;6039710;23;20154;-90
2022/12/29 04:43:19;;;;;;;20.20;7.70;;;;;;;9.98;66.53;100127.84;6040360;23;20253;-90
2022/12/29 04:45:46;;;;;;;14.83;6.20;;;;;;;10.00;66.51;100132.09;6040355;23;20600;-89
2022/12/29 04:48:13;;;;;;;16.80;7.07;;;;;;;10.02;66.18;100138.16;6039758;23;20647;-89
2022/12/29 04:50:40;;;;;;;11.63;6.83;;;;;;;10.05;66.14;100140.66;6039645;23;20153;-89
2022/12/29 04:53:06;;;;;;;15.40;6.97;;;;;;;10.07;66.17;100148.47;6015690;23;20479;-89
2022/12/29 04:55:32;;;;;;;20.27;7.47;;;;;;;10.11;65.88;100150.94;6014543;23;20189;-89
2022/12/29 04:57:57;;;;;;;21.83;6.97;;;;;;;10.14;65.85;100156.06;6015145;23;20165;-89
2022/12/29 05:00:24;;;;;;;20.63;6.93;;;;;;;10.18;66.00;100162.94;6014623;23;20162;-89
2022/12/29 05:02:50;;;;;;;15.10;6.77;;;;;;;10.14;66.13;100157.88;6014842;23;20498;-89
2022/12/29 05:05:16;;;;;;;15.47;7.33;;;;;;;10.10;65.91;100156.22;6015031;23;20157;-89
2022/12/29 05:07:42;;;;;;;14.73;6.10;;;;;;;10.08;66.45;100152.78;6039254;23;20268;-89
2022/12/29 05:10:09;;;;;;;15.63;6.60;;;;;;;10.12;65.94;100157.00;6039538;23;20585;-89
2022/12/29 05:12:37;;;;;;;17.93;5.97;;;;;;;10.14;66.04;100161.31;6014882;23;20180;-89
2022/12/29 05:15:06;;;;;;;25.13;7.20;;;;;;;10.13;66.00;100164.00;6039873;23;20154;-89
2022/12/29 05:18:15;;;;;;;24.80;7.83;;;;;;;10.12;66.17;100157.91;6014241;23;20613;-89
2022/12/29 05:20:42;;;;;;;19.10;6.40;;;;;;;10.10;65.89;100151.84;6038267;23;20185;-89
2022/12/29 05:23:07;;;;;;;17.33;7.87;;;;;;;10.12;66.04;100152.66;6014563;23;20211;-89
2022/12/29 05:25:34;;;;;;;13.13;5.90;;;;;;;10.12;66.02;100150.03;6014384;23;20164;-89
2022/12/29 05:28:00;;;;;;;12.13;5.60;;;;;;;10.14;66.03;100156.06;6014424;23;20157;-89
2022/12/29 05:30:27;;;;;;;11.33;5.77;;;;;;;10.10;66.14;100154.44;6039360;23;20592;-89
2022/12/29 05:32:52;;;;;;;12.50;5.63;;;;;;;10.13;65.93;100161.38;6014874;23;20196;-89
2022/12/29 05:35:19;;;;;;;17.60;5.93;;;;;;;10.16;65.94;100162.16;6014774;23;20158;-89
2022/12/29 05:37:44;;;;;;;18.33;5.73;;;;;;;10.21;65.85;100167.22;6014815;23;20158;-89
2022/12/29 05:40:11;;;;;;;12.60;5.10;;;;;;;10.25;65.62;100167.06;6014290;23;20158;-89
2022/12/29 05:42:36;;;;;;;12.67;4.90;;;;;;;10.32;64.89;100165.09;6014731;23;20220;-90
2022/12/29 05:45:02;;;;;;;15.37;6.57;;;;;;;10.21;64.95;100168.09;6039969;23;20161;-89
2022/12/29 05:47:29;;;;;;;17.90;6.63;;;;;;;10.16;65.54;100169.16;6039703;23;20209;-89
2022/12/29 05:49:56;;;;;;;16.37;5.57;;;;;;;10.17;65.33;100170.84;6014571;23;20257;-89
2022/12/29 05:52:45;;;;;;;28.40;8.20;;;;;;;10.18;65.16;100162.94;6014688;23;20648;-89
2022/12/29 05:55:11;;;;;;;20.20;8.20;;;;;;;10.17;65.34;100161.22;6014419;23;20177;-89
2022/12/29 05:57:37;;;;;;;16.97;7.43;;;;;;;10.22;65.25;100167.16;6037944;23;20608;-90
2022/12/29 06:00:05;;;;;;;13.50;6.07;;;;;;;10.21;65.25;100172.47;6038024;23;20157;-89
2022/12/29 06:02:32;;;;;;;16.53;5.97;;;;;;;10.19;65.49;100169.91;6039011;23;20484;-89
2022/12/29 06:04:58;;;;;;;16.00;7.10;;;;;;;10.25;65.32;100163.56;6035961;23;20739;-90
2022/12/29 06:07:24;;;;;;;17.30;7.70;;;;;;;10.21;65.42;100169.84;6039923;23;20272;-89
2022/12/29 06:09:51;;;;;;;20.97;8.53;;;;;;;10.20;65.83;100166.34;6015058;23;20172;-90
2022/12/29 06:12:17;;;;;;;20.20;9.43;;;;;;;10.19;66.17;100172.53;6040184;23;20280;-90
2022/12/29 06:14:44;;;;;;;18.47;7.57;;;;;;;10.12;65.79;100173.63;6040674;23;20194;-90
2022/12/29 06:17:18;;;;;;;17.33;7.50;;;;;;;10.05;66.50;100161.63;6039914;23;20201;-90
2022/12/29 06:19:44;;;;;;;17.43;8.07;;;;;;;10.10;66.38;100175.41;6040811;23;20138;-86
2022/12/29 06:22:11;;;;;;;19.73;8.97;;;;;;;10.12;66.69;100181.47;6041124;23;20213;-86
2022/12/29 06:24:37;;;;;;;20.97;8.73;;;;;;;10.13;66.28;100180.59;6040075;23;20181;-86
2022/12/29 06:27:05;;;;;;;19.23;7.93;;;;;;;10.17;66.07;100182.19;6016064;23;20158;-87
2022/12/29 06:29:31;;;;;;;18.13;7.53;;;;;;;10.23;66.32;100192.47;6041409;23;20158;-86
2022/12/29 06:31:58;;;;;;;27.23;11.00;;;;;;;10.25;66.24;100193.25;6040365;23;20150;-86
2022/12/29 06:34:25;;;;;;;25.47;10.27;;;;;;;10.31;66.22;100194.81;6041175;23;20196;-86
2022/12/29 06:36:52;;;;;;;17.93;7.90;;;;;;;10.30;66.44;100188.72;6041496;23;20585;-86
2022/12/29 06:39:19;;;;;;;15.13;6.83;;;;;;;10.32;66.46;100186.91;6040787;23;20154;-86
2022/12/29 06:41:45;;;;;;;14.73;7.20;;;;;;;10.36;66.30;100188.50;6040394;23;20229;-85
2022/12/29 06:44:11;;;;;;;22.00;8.03;;;;;;;10.42;66.35;100192.69;6040366;23;20149;-85
2022/12/29 06:46:37;;;;;;;25.50;8.57;;;;;;;10.35;65.78;100184.16;6014237;23;20496;-85
2022/12/29 06:49:04;;;;;;;23.53;10.90;;;;;;;10.35;66.12;100186.78;6039180;23;20241;-85
2022/12/29 06:51:31;;;;;;;28.43;13.00;;;;;;;10.34;66.30;100190.34;6015462;23;20165;-86
2022/12/29 06:53:57;;;;;;;25.13;10.33;;;;;;;10.42;66.35;100190.91;6012642;23;20189;-87
2022/12/29 06:56:24;;;;;;;16.63;8.63;;;;;;;10.48;66.20;100195.91;6015539;23;20164;-86
2022/12/29 06:58:51;;;;;;;25.50;10.90;;;;;;;10.50;66.46;100198.50;6040658;23;20154;-86
2022/12/29 07:01:17;;;;;;;26.40;10.07;;;;;;;10.39;66.47;100190.16;6016188;23;20162;-85
2022/12/29 07:03:44;;;;;;;24.27;10.80;;;;;;;10.31;66.50;100186.94;6015426;23;20154;-86
2022/12/29 07:06:10;;;;;;;46.47;14.40;;;;;;;10.31;67.08;100184.31;6015267;23;20233;-86
2022/12/29 07:08:38;;;;;;;29.03;11.13;;;;;;;10.42;67.12;100188.28;6040370;23;20161;-86
2022/12/29 07:11:04;;;;;;;23.63;9.30;;;;;;;10.49;66.94;100187.16;6040276;23;20154;-87
2022/12/29 07:13:30;;;;;;;15.97;7.10;;;;;;;10.58;66.68;100193.00;6040587;23;20201;-86
2022/12/29 07:15:56;;;;;;;17.40;7.67;;;;;;;10.55;66.28;100187.84;6040168;23;20521;-86
2022/12/29 07:18:23;;;;;;;16.80;7.30;;;;;;;10.56;66.68;100189.56;6039803;23;20150;-86
2022/12/29 07:20:52;;;;;;;15.43;6.63;;;;;;;10.59;66.65;100184.19;6040433;23;20229;-86
2022/12/29 07:23:17;;;;;;;14.33;6.20;;;;;;;10.62;66.89;100184.09;6040392;23;20150;-86
2022/12/29 07:25:46;;;;;;;17.30;6.57;;;;;;;10.68;66.95;100178.63;6040418;23;20616;-86
2022/12/29 07:28:13;;;;;;;14.53;6.60;;;;;;;10.82;66.87;100187.69;6015404;23;20154;-86
2022/12/29 07:30:39;;;;;;;12.77;5.97;;;;;;;10.94;66.51;100194.28;6038956;23;20158;-86
2022/12/29 07:33:06;;;;;;;13.80;6.13;;;;;;;10.97;65.69;100199.41;6040344;23;20178;-86
2022/12/29 07:35:34;;;;;;;10.43;5.20;;;;;;;11.00;65.84;100196.66;6040286;23;20151;-87
2022/12/29 07:38:00;;;;;;;15.63;6.83;;;;;;;11.15;65.92;100197.84;6015465;23;20249;-87
2022/12/29 07:40:27;;;;;;;13.30;6.00;;;;;;;11.23;65.55;100196.66;6040276;23;20618;-86
2022/12/29 07:42:52;;;;;;;15.47;6.17;;;;;;;11.28;65.18;100201.72;6040905;23;20162;-86
2022/12/29 07:45:19;;;;;;;13.33;6.40;;;;;;;11.38;64.71;100198.69;6040113;23;20150;-86
2022/12/29 07:47:54;;;;;;;17.70;7.53;;;;;;;11.40;64.41;100202.09;6040132;23;20152;-87
2022/12/29 07:50:21;;;;;;;17.27;8.30;;;;;;;11.42;64.64;100204.69;6040212;23;20139;-87
2022/12/29 07:52:48;;;;;;;15.33;7.87;;;;;;;11.53;64.46;100203.31;6039945;23;20154;-86
2022/12/29 07:55:16;;;;;;;23.80;8.87;;;;;;;11.60;64.16;100191.69;6015190;23;20170;-86
2022/12/29 07:57:43;;;;;;;14.37;6.63;;;;;;;11.61;63.77;100187.25;6040047;23;20157;-86
2022/12/29 08:00:11;;;;;;;20.27;8.47;;;;;;;11.74;63.67;100195.56;6039626;23;20172;-86
2022/12/29 08:02:37;;;;;;;17.70;8.87;;;;;;;11.72;63.17;100190.34;6040005;23;20524;-87
2022/12/29 08:05:04;;;;;;;17.23;7.43;;;;;;;11.82;63.28;100196.09;6039463;23;20222;-86
2022/12/29 08:07:31;;;;;;;11.70;6.13;;;;;;;11.86;63.56;100195.91;6039746;23;20150;-86
2022/12/29 08:09:58;;;;;;;13.97;6.60;;;;;;;11.91;62.74;100198.34;6039490;23;20161;-86
2022/12/29 08:12:25;;;;;;;23.37;8.70;;;;;;;12.01;62.67;100211.03;6038673;23;20653;-86
2022/12/29 08:14:54;;;;;;;10.40;5.87;;;;;;;12.03;62.00;100216.22;6038506;23;20189;-86
2022/12/29 08:17:21;;;;;;;15.10;6.67;;;;;;;12.11;61.71;100206.25;6039048;23;20581;-86
2022/12/29 08:19:48;;;;;;;17.07;8.83;;;;;;;12.21;61.56;100210.22;6039759;23;20152;-86
2022/12/29 08:22:16;;;;;;;14.07;7.80;;;;;;;12.28;60.88;100209.03;6039705;23;20178;-86
2022/12/29 08:24:46;;;;;;;15.47;7.83;;;;;;;12.23;60.41;100213.63;6040131;23;20152;-86
2022/12/29 08:27:12;;;;;;;19.27;8.87;;;;;;;12.33;59.69;100212.31;6039739;23;20159;-85
2022/12/29 08:29:39;;;;;;;22.63;8.83;;;;;;;12.06;59.82;100216.94;6039613;23;20193;-87
2022/12/29 08:32:06;;;;;;;15.10;7.73;;;;;;;11.90;60.88;100215.88;6039550;23;20166;-86
2022/12/29 08:34:33;;;;;;;20.63;9.20;;;;;;;12.00;60.63;100213.75;6039439;23;20509;-87
2022/12/29 08:37:00;;;;;;;17.37;8.00;;;;;;;12.11;59.60;100214.13;6039531;23;20216;-86
2022/12/29 08:39:27;;;;;;;13.90;7.13;;;;;;;12.17;59.71;100198.09;6039471;23;20178;-87
2022/12/29 08:41:54;;;;;;;14.77;8.10;;;;;;;12.29;59.33;100210.72;6038961;23;20490;-86
2022/12/29 08:44:20;;;;;;;20.60;7.97;;;;;;;12.39;58.66;100205.94;6014649;23;20479;-86
2022/12/29 08:46:47;;;;;;;13.97;7.30;;;;;;;12.31;58.07;100211.53;6039520;23;20196;-86
2022/12/29 08:49:14;;;;;;;17.90;8.17;;;;;;;12.05;59.49;100206.53;6039620;23;20151;-87
2022/12/29 08:51:39;;;;;;;16.10;7.80;;;;;;;11.91;59.74;100207.09;6039872;23;20235;-86
2022/12/29 08:54:06;;;;;;;17.93;8.50;;;;;;;12.09;59.31;100201.06;6038785;23;20271;-86
2022/12/29 08:56:33;;;;;;;17.23;7.73;;;;;;;12.23;58.54;100198.72;6039280;23;20391;-86
2022/12/29 08:58:59;;;;;;;17.17;8.13;;;;;;;12.33;58.39;100194.78;6039263;23;20234;-87
2022/12/29 09:01:26;;;;;;;17.57;7.97;;;;;;;12.48;58.50;100192.38;6039787;23;20179;-86
2022/12/29 09:03:56;;;;;;;19.97;9.17;;;;;;;12.48;58.07;100189.75;6039220;23;20216;-85
2022/12/29 09:06:23;;;;;;;16.53;7.80;;;;;;;12.57;57.25;100179.72;6039574;23;20240;-86
2022/12/29 09:08:52;;;;;;;15.20;6.97;;;;;;;12.62;57.26;100169.84;6039928;23;20153;-86
2022/12/29 09:11:23;;;;;;;16.03;7.53;;;;;;;12.73;57.28;100172.84;6014185;23;20170;-87
2022/12/29 09:13:54;;;;;;;13.13;7.40;;;;;;;12.84;56.47;100170.56;5991285;23;20188;-86
2022/12/29 09:16:33;;;;;;;18.03;9.10;;;;;;;12.98;55.47;100175.22;6038503;23;20161;-86
2022/12/29 09:19:21;;;;;;;14.47;7.80;;;;;;;13.10;54.79;100173.84;6039897;23;20160;-86
2022/12/29 09:21:51;;;;;;;15.60;7.67;;;;;;;12.89;55.61;100165.13;6039486;23;20154;-85
2022/12/29 09:24:30;;;;;;;16.00;7.57;;;;;;;12.90;55.87;100162.41;6014624;23;20589;-84
2022/12/29 09:27:11;;;;;;;14.47;7.57;;;;;;;12.95;56.20;100156.91;6039702;23;20554;-83
2022/12/29 09:29:47;;;;;;;15.70;8.03;;;;;;;12.91;55.78;100147.47;6039574;23;20200;-83
2022/12/29 09:32:16;;;;;;;18.87;8.27;;;;;;;13.00;55.60;100140.94;6039461;23;20141;-84
2022/12/29 09:34:45;;;;;;;20.77;8.20;;;;;;;13.10;55.70;100136.97;6039065;23;20280;-84
2022/12/29 09:37:27;;;;;;;17.27;8.17;;;;;;;13.03;56.06;100136.38;6038994;23;20165;-84
2022/12/29 09:40:02;;;;;;;13.77;7.40;;;;;;;13.10;55.81;100136.97;6038977;23;20154;-84
2022/12/29 09:43:15;;;;;;;21.00;8.53;;;;;;;13.31;55.50;100130.72;6013833;23;20225;-84
2022/12/29 09:46:47;;;;;;;14.77;7.17;;;;;;;13.41;54.88;100117.03;6038889;23;20236;-84
2022/12/29 09:49:45;;;;;;;17.67;8.00;;;;;;;13.65;54.89;100114.97;6038195;23;20165;-84
2022/12/29 09:53:18;;;;;;;18.03;9.03;;;;;;;13.60;54.15;100116.94;6014154;23;20162;-89
2022/12/29 09:56:20;;;;;;;12.93;6.77;;;;;;;13.54;54.41;100107.59;5925641;24;20260;-88
2022/12/29 09:59:32;;;;;;;16.40;6.77;;;;;;;13.79;53.51;100101.94;5993819;23;20220;-88
2022/12/29 10:09:00;;;;;;;;;;;;;;;;;;;;;
2022/12/29 10:15:06;;;;;;;17.63;8.47;;;;;;;14.49;51.54;100082.50;6010502;23;20214;-85
2022/12/29 10:17:56;;;;;;;18.03;8.73;;;;;;;14.74;49.88;100064.41;6010079;23;20166;-85
2022/12/29 10:20:53;;;;;;;17.70;8.67;;;;;;;14.92;49.92;100071.31;6010343;23;20556;-85
2022/12/29 10:23:38;;;;;;;19.37;8.93;;;;;;;15.10;50.12;100067.63;6010835;23;20151;-85
2022/12/29 10:26:12;;;;;;;16.47;7.97;;;;;;;15.12;49.61;100057.84;5985682;23;20165;-85
2022/12/29 10:28:57;;;;;;;20.20;8.23;;;;;;;15.22;49.41;100059.03;5986311;23;20148;-85
2022/12/29 10:31:48;;;;;;;18.87;8.43;;;;;;;15.30;49.26;100059.44;6010795;23;20171;-85
2022/12/29 10:34:40;;;;;;;11.93;7.00;;;;;;;15.44;48.56;100049.84;5999998;23;20240;-86
2022/12/29 10:37:30;;;;;;;14.97;7.00;;;;;;;15.49;47.99;100053.16;5978412;23;20173;-85
2022/12/29 10:39:58;;;;;;;15.23;6.30;;;;;;;15.67;47.95;100047.59;6009813;23;20154;-85
2022/12/29 10:42:44;;;;;;;14.07;7.63;;;;;;;15.77;47.44;100040.00;6009763;23;20240;-85
2022/12/29 10:45:16;;;;;;;14.53;7.53;;;;;;;15.86;47.67;100040.31;6010083;23;20416;-86
2022/12/29 10:48:00;;;;;;;15.20;8.40;;;;;;;15.83;47.61;100034.34;6009983;23;20165;-85
2022/12/29 10:50:29;;;;;;;15.73;7.33;;;;;;;15.68;47.22;100036.09;6009771;23;20482;-86
2022/12/29 10:53:00;;;;;;;15.83;7.03;;;;;;;15.85;47.12;100024.53;5986298;23;20168;-86
2022/12/29 10:55:38;;;;;;;15.13;7.80;;;;;;;16.17;46.40;100026.06;6011391;23;20581;-85
2022/12/29 10:58:13;;;;;;;17.40;8.23;;;;;;;16.17;46.28;100023.41;6010874;23;20434;-85
2022/12/29 11:00:41;;;;;;;19.47;9.30;;;;;;;16.09;46.11;100020.38;6010495;23;20143;-85
2022/12/29 11:03:44;;;;;;;18.77;8.30;;;;;;;16.18;45.74;100009.25;6011129;23;20185;-85
2022/12/29 11:06:26;;;;;;;16.13;8.87;;;;;;;16.17;46.14;100012.84;6011094;23;20145;-86
2022/12/29 11:09:16;;;;;;;14.97;7.47;;;;;;;15.82;45.68;100012.34;5963633;23;20243;-85
2022/12/29 11:11:43;;;;;;;16.97;8.63;;;;;;;15.79;47.07;100009.03;6010570;23;20206;-85
2022/12/29 11:14:25;;;;;;;16.97;8.10;;;;;;;15.67;47.42;100004.50;6037568;23;20288;-85
2022/12/29 11:17:03;;;;;;;14.20;7.43;;;;;;;15.85;46.57;99998.94;6039597;23;20170;-85
2022/12/29 11:19:33;;;;;;;17.47;8.50;;;;;;;16.10;46.06;99990.38;6039726;23;20181;-88
2022/12/29 11:22:43;;;;;;;15.67;7.77;;;;;;;15.92;45.51;99991.50;6039886;23;20229;-85
2022/12/29 11:25:12;;;;;;;16.47;8.23;;;;;;;15.78;46.59;99986.19;6034480;23;20181;-85
2022/12/29 11:27:55;;;;;;;17.07;8.20;;;;;;;16.01;46.40;99984.81;6040124;23;20161;-86
2022/12/29 11:30:29;;;;;;;12.20;6.63;;;;;;;16.22;45.31;99979.00;5991887;23;20161;-87
2022/12/29 11:32:57;;;;;;;15.90;8.23;;;;;;;16.28;45.39;99976.00;6040527;23;20234;-85
2022/12/29 11:35:40;;;;;;;14.70;7.43;;;;;;;16.42;44.08;99973.34;6038930;23;20488;-86
2022/12/29 11:38:23;;;;;;;15.73;8.67;;;;;;;16.66;44.58;99978.91;6040086;23;20217;-87
2022/12/29 11:40:50;;;;;;;12.53;6.83;;;;;;;16.59;44.74;99978.44;6016047;23;20154;-85
2022/12/29 11:43:41;;;;;;;17.53;8.77;;;;;;;16.66;44.38;99962.16;6040066;23;20562;-87
2022/12/29 11:46:17;;;;;;;22.03;9.40;;;;;;;16.92;44.32;99963.97;6014709;23;20214;-86
2022/12/29 11:48:47;;;;;;;20.80;9.33;;;;;;;17.00;43.96;99966.97;6040207;23;20134;-86
2022/12/29 11:51:37;;;;;;;19.23;10.13;;;;;;;17.05;43.94;99972.81;6039936;23;20162;-87
2022/12/29 11:54:05;;;;;;;17.03;8.80;;;;;;;17.12;43.43;99968.81;6037779;23;20634;-87
2022/12/29 11:56:43;;;;;;;17.93;8.97;;;;;;;17.10;43.73;99968.06;6039687;23;20590;-87
2022/12/29 11:59:39;;;;;;;17.37;8.17;;;;;;;17.22;43.90;99961.13;6038908;23;20197;-87
2022/12/29 12:02:27;;;;;;;18.27;8.17;;;;;;;17.30;43.22;99950.81;6039579;23;20141;-87
2022/12/29 12:05:04;;;;;;;18.73;9.17;;;;;;;17.32;42.91;99947.13;6039550;23;20134;-87
2022/12/29 12:08:02;;;;;;;21.83;9.47;;;;;;;17.26;42.44;99952.84;6039625;23;20134;-87
2022/12/29 12:10:44;;;;;;;19.50;9.23;;;;;;;17.22;42.26;99958.47;6014543;23;20173;-87
2022/12/29 12:13:21;;;;;;;20.47;9.50;;;;;;;17.15;42.75;99950.06;6038786;23;20626;-87
2022/12/29 12:16:20;;;;;;;20.20;9.77;;;;;;;17.16;42.38;99951.78;6014789;23;20245;-87
2022/12/29 12:18:58;;;;;;;15.63;9.43;;;;;;;16.99;42.84;99944.06;6029921;23;20171;-89
2022/12/29 12:21:44;;;;;;;16.93;9.10;;;;;;;17.18;42.31;99933.97;6039674;23;20220;-86
2022/12/29 12:24:34;;;;;;;18.10;9.33;;;;;;;17.13;42.66;99920.19;6015019;23;20217;-89
2022/12/29 12:27:29;;;;;;;18.03;9.60;;;;;;;17.24;43.26;99927.41;6039805;23;20575;-89
2022/12/29 12:30:03;;;;;;;19.40;8.20;;;;;;;17.35;43.14;99928.38;6040155;23;20142;-89
2022/12/29 12:32:46;;;;;;;12.43;7.50;;;;;;;17.23;43.22;99931.84;6015114;23;20501;-89
2022/12/29 12:35:20;;;;;;;15.73;7.87;;;;;;;17.16;42.78;99926.09;6039813;23;20181;-90
2022/12/29 12:38:17;;;;;;;12.50;7.77;;;;;;;17.24;42.63;99928.25;6015061;23;20157;-89